Time;durP1;ratioP1;P1;durP2;ratioP2;P2;SDS_P1;SDS_P2;PMS_P1;PMS_P2;Temp;Humidity;BMP_temperature;BMP_pressure;BME280_temperature;BME280_humidity;BME280_pressure;Samples;Min_cycle;Max_cycle;Signal;HPM_P1;HPM_P2
2024/04/05 00:01:48;;;;;;;7.13;1.90;;;;;;;14.64;69.19;98615.59;5709608;25;20029;-63
2024/04/05 00:04:14;;;;;;;9.20;1.80;;;;;;;14.66;69.08;98618.75;5699626;25;20033;-63
2024/04/05 00:06:41;;;;;;;5.10;1.83;;;;;;;14.62;69.12;98617.91;5697859;25;20488;-62
2024/04/05 00:09:08;;;;;;;4.82;2.05;;;;;;;14.58;68.95;98625.31;5734137;25;20040;-62
2024/04/05 00:11:34;;;;;;;7.55;2.25;;;;;;;14.54;69.42;98623.31;5733162;25;20056;-62
2024/04/05 00:14:01;;;;;;;6.32;2.20;;;;;;;14.57;69.29;98624.53;5698270;25;20040;-63
2024/04/05 00:16:27;;;;;;;4.00;1.52;;;;;;;14.56;69.49;98616.66;5698720;25;20074;-63
2024/04/05 00:18:54;;;;;;;5.80;1.88;;;;;;;14.55;69.56;98621.38;5696431;25;20048;-62
2024/04/05 00:21:22;;;;;;;7.68;2.00;;;;;;;14.57;69.43;98621.78;5732942;25;20040;-62
2024/04/05 00:23:49;;;;;;;7.22;2.22;;;;;;;14.55;69.12;98624.09;5698196;25;20488;-62
2024/04/05 00:26:15;;;;;;;6.22;1.67;;;;;;;14.53;69.51;98626.44;5733132;25;20064;-63
2024/04/05 00:28:42;;;;;;;5.82;1.58;;;;;;;14.53;69.30;98629.97;5732295;25;20042;-63
2024/04/05 00:31:09;;;;;;;8.43;2.60;;;;;;;14.54;69.72;98615.09;5732925;25;20032;-61
2024/04/05 00:33:36;;;;;;;4.07;1.92;;;;;;;14.52;69.75;98622.91;5733458;25;20469;-62
2024/04/05 00:36:03;;;;;;;7.20;1.75;;;;;;;14.53;69.77;98632.72;5730242;24;20495;-62
2024/04/05 00:38:29;;;;;;;9.85;2.05;;;;;;;14.52;69.87;98617.41;5732024;24;20025;-62
2024/04/05 00:40:56;;;;;;;6.40;1.95;;;;;;;14.52;69.79;98617.41;5731272;24;20051;-62
2024/04/05 00:43:23;;;;;;;5.63;1.77;;;;;;;14.54;70.39;98619.78;5730875;25;20068;-62
2024/04/05 00:45:51;;;;;;;6.78;2.22;;;;;;;14.53;70.16;98621.75;5730844;25;20087;-62
2024/04/05 00:48:22;;;;;;;8.50;2.20;;;;;;;14.57;70.17;98623.72;5732054;24;20505;-63
2024/04/05 00:50:51;;;;;;;5.53;2.00;;;;;;;14.53;70.16;98616.25;5732848;24;20415;-63
2024/04/05 00:53:36;;;;;;;10.10;2.10;;;;;;;14.54;70.20;98617.84;5733057;25;20060;-63
2024/04/05 00:56:03;;;;;;;5.63;1.63;;;;;;;14.56;70.46;98617.47;5733917;24;20419;-64
2024/04/05 00:58:30;;;;;;;9.45;2.10;;;;;;;14.59;70.45;98602.97;5730156;24;20556;-63
2024/04/05 01:00:56;;;;;;;7.07;1.80;;;;;;;14.63;70.33;98605.78;5733123;25;20040;-63
2024/04/05 01:03:23;;;;;;;6.88;2.28;;;;;;;14.64;70.16;98607.34;5734523;25;20476;-63
2024/04/05 01:05:50;;;;;;;5.13;1.48;;;;;;;14.66;70.03;98594.03;5733780;25;20065;-63
2024/04/05 01:08:17;;;;;;;7.28;1.90;;;;;;;14.68;70.43;98594.44;5733099;25;20404;-63
2024/04/05 01:10:44;;;;;;;8.63;2.05;;;;;;;14.68;70.68;98597.19;5733036;25;20104;-63
2024/04/05 01:13:12;;;;;;;4.55;1.90;;;;;;;14.73;70.46;98596.88;5733541;25;20029;-63
2024/04/05 01:15:39;;;;;;;5.15;1.65;;;;;;;14.79;70.33;98600.88;5701508;25;20570;-62
2024/04/05 01:18:07;;;;;;;5.95;1.73;;;;;;;14.79;70.24;98606.38;5700540;25;20112;-63
2024/04/05 01:20:35;;;;;;;6.80;1.80;;;;;;;14.77;70.39;98614.19;5735943;25;20044;-63
2024/04/05 01:23:06;;;;;;;4.95;1.90;;;;;;;14.75;70.35;98613.78;5736156;25;20040;-62
2024/04/05 01:25:34;;;;;;;6.03;2.10;;;;;;;14.77;70.37;98608.69;5702890;25;20033;-62
2024/04/05 01:28:02;;;;;;;6.50;2.08;;;;;;;14.81;70.29;98607.56;5702646;25;20060;-62
2024/04/05 01:30:28;;;;;;;7.03;2.00;;;;;;;14.82;70.22;98602.88;5747064;25;20048;-62
2024/04/05 01:33:00;;;;;;;4.25;1.83;;;;;;;14.81;70.11;98595.78;5743492;24;20071;-61
2024/04/05 01:35:27;;;;;;;5.90;1.77;;;;;;;14.85;70.38;98602.91;5746622;24;20169;-62
2024/04/05 01:37:55;;;;;;;7.70;1.70;;;;;;;14.92;70.03;98595.94;5747881;24;20037;-62
2024/04/05 01:40:21;;;;;;;5.97;2.05;;;;;;;14.95;69.92;98597.94;5746253;24;20052;-62
2024/04/05 01:42:48;;;;;;;5.38;1.67;;;;;;;14.92;69.80;98595.94;5748036;24;20057;-62
2024/04/05 01:45:15;;;;;;;5.60;2.15;;;;;;;14.83;69.51;98587.97;5716602;25;20078;-62
2024/04/05 01:47:44;;;;;;;6.45;1.80;;;;;;;14.75;69.71;98580.84;5749418;24;20040;-62
2024/04/05 01:50:13;;;;;;;5.80;1.88;;;;;;;14.69;69.98;98593.28;5734587;25;20779;-61
2024/04/05 01:52:40;;;;;;;10.43;2.10;;;;;;;14.62;69.98;98594.00;5734683;25;20487;-62
2024/04/05 01:55:07;;;;;;;6.35;1.70;;;;;;;14.58;70.33;98592.38;5736320;24;20058;-62
2024/04/05 01:57:35;;;;;;;6.07;2.08;;;;;;;14.57;69.84;98594.34;5735696;24;20506;-62
2024/04/05 02:00:03;;;;;;;5.80;1.63;;;;;;;14.56;70.22;98592.75;5733831;24;20495;-61
2024/04/05 02:02:37;;;;;;;5.93;1.90;;;;;;;14.57;70.09;98588.84;5736388;25;20025;-62
2024/04/05 02:05:04;;;;;;;4.75;2.00;;;;;;;14.53;70.01;98597.03;5735766;25;20064;-61
2024/04/05 02:07:31;;;;;;;5.75;1.70;;;;;;;14.48;70.06;98588.31;5667023;25;20033;-62
2024/04/05 02:09:57;;;;;;;7.10;2.00;;;;;;;14.49;70.21;98598.13;5700276;25;20044;-62
2024/04/05 02:12:28;;;;;;;8.35;2.00;;;;;;;14.50;70.06;98596.97;5699628;25;20061;-62
2024/04/05 02:14:55;;;;;;;6.72;1.67;;;;;;;14.45;69.88;98592.59;5735598;25;20025;-62
2024/04/05 02:17:22;;;;;;;6.97;1.92;;;;;;;14.43;69.94;98603.16;5699280;25;20041;-63
2024/04/05 02:19:50;;;;;;;10.60;2.60;;;;;;;14.44;69.65;98601.22;5735139;25;20499;-63
2024/04/05 02:22:17;;;;;;;5.97;2.45;;;;;;;14.41;69.79;98610.94;5735241;25;20065;-63
2024/04/05 02:24:44;;;;;;;9.75;2.25;;;;;;;14.39;70.14;98610.53;5735124;25;20036;-63
2024/04/05 02:27:10;;;;;;;6.70;1.75;;;;;;;14.38;69.75;98608.94;5699811;25;20026;-63
2024/04/05 02:29:38;;;;;;;10.93;1.77;;;;;;;14.35;69.63;98617.94;5735047;25;20033;-62
2024/04/05 02:32:04;;;;;;;8.85;2.80;;;;;;;14.33;70.06;98609.28;5734962;25;20475;-62
2024/04/05 02:34:31;;;;;;;8.80;2.00;;;;;;;14.28;70.19;98612.31;5734665;25;20064;-62
2024/04/05 02:36:57;;;;;;;5.95;2.20;;;;;;;14.28;70.12;98615.06;5735079;25;20052;-62
2024/04/05 02:39:24;;;;;;;8.32;2.38;;;;;;;14.29;70.12;98613.91;5735004;25;20373;-63
2024/04/05 02:41:50;;;;;;;4.70;1.55;;;;;;;14.31;69.93;98608.84;5699034;25;20116;-63
2024/04/05 02:44:17;;;;;;;6.28;2.17;;;;;;;14.34;70.30;98612.81;5735410;25;20048;-63
2024/04/05 02:46:43;;;;;;;5.72;1.80;;;;;;;14.33;70.00;98617.50;5699959;25;20033;-63
2024/04/05 02:49:11;;;;;;;6.32;2.00;;;;;;;14.32;70.21;98615.94;5735470;25;20389;-63
2024/04/05 02:51:38;;;;;;;6.22;1.50;;;;;;;14.39;70.03;98610.53;5699906;25;20060;-63
2024/04/05 02:54:04;;;;;;;4.78;2.08;;;;;;;14.38;69.61;98610.91;5700926;25;20554;-63
2024/04/05 02:56:31;;;;;;;6.88;1.83;;;;;;;14.34;69.75;98610.88;5735047;25;20527;-63
2024/04/05 02:58:57;;;;;;;5.20;1.77;;;;;;;14.32;69.64;98613.19;5733085;25;20500;-63
2024/04/05 03:01:24;;;;;;;5.72;1.88;;;;;;;14.33;69.47;98603.78;5702815;24;20072;-63
2024/04/05 03:03:51;;;;;;;5.82;2.00;;;;;;;14.32;69.64;98613.19;5736131;24;20064;-62
2024/04/05 03:06:19;;;;;;;8.95;2.90;;;;;;;14.28;69.46;98608.78;5700451;25;20053;-61
2024/04/05 03:08:46;;;;;;;9.48;3.50;;;;;;;14.14;69.67;98607.44;5733878;25;20150;-62
2024/04/05 03:11:13;;;;;;;5.78;1.95;;;;;;;14.08;70.06;98608.91;5699613;25;20037;-61
2024/04/05 03:13:40;;;;;;;3.60;1.55;;;;;;;14.12;69.91;98608.94;5700000;25;20044;-61
2024/04/05 03:16:07;;;;;;;5.18;1.75;;;;;;;14.13;69.80;98607.78;5734538;25;20032;-62
2024/04/05 03:18:33;;;;;;;5.75;2.50;;;;;;;14.11;69.52;98605.41;5698107;25;20219;-61
2024/04/05 03:21:00;;;;;;;8.82;2.60;;;;;;;14.10;69.55;98600.31;5734065;25;20484;-62
2024/04/05 03:23:26;;;;;;;6.53;1.95;;;;;;;14.05;70.12;98608.84;5734357;25;20130;-62
2024/04/05 03:25:54;;;;;;;6.55;2.30;;;;;;;14.03;69.83;98609.22;5733804;25;20506;-62
2024/04/05 03:28:20;;;;;;;9.63;2.03;;;;;;;14.00;69.94;98598.22;5698573;25;20048;-62
2024/04/05 03:30:46;;;;;;;7.47;2.25;;;;;;;13.98;70.36;98601.31;5698931;25;20505;-62
2024/04/05 03:33:13;;;;;;;5.03;2.20;;;;;;;13.99;69.84;98593.88;5734295;25;20040;-61
2024/04/05 03:35:40;;;;;;;6.15;1.83;;;;;;;14.03;70.19;98602.94;5698291;25;20157;-61
2024/04/05 03:38:06;;;;;;;6.05;2.35;;;;;;;14.04;70.10;98602.59;5698200;25;20052;-61
2024/04/05 03:40:38;;;;;;;5.63;2.45;;;;;;;14.05;69.88;98597.88;5733918;25;20036;-62
2024/04/05 03:43:08;;;;;;;8.85;2.40;;;;;;;14.04;69.85;98588.88;5734237;25;20070;-62
2024/04/05 03:45:34;;;;;;;6.32;2.20;;;;;;;14.07;69.92;98593.63;5733926;25;20052;-62
2024/04/05 03:48:01;;;;;;;5.72;2.40;;;;;;;14.13;69.67;98591.34;5697284;25;20033;-63
2024/04/05 03:50:28;;;;;;;5.32;2.25;;;;;;;14.14;69.57;98584.72;5698520;25;20500;-63
2024/04/05 03:52:55;;;;;;;6.38;1.80;;;;;;;14.13;69.60;98585.84;5734154;25;20049;-63
2024/04/05 03:55:21;;;;;;;6.22;1.80;;;;;;;14.12;69.32;98579.56;5734500;25;20068;-63
2024/04/05 03:57:52;;;;;;;10.82;2.40;;;;;;;14.11;69.29;98572.50;5733156;25;20468;-63
2024/04/05 04:00:21;;;;;;;7.00;2.00;;;;;;;14.11;69.43;98577.22;5734367;25;20065;-63
2024/04/05 04:02:51;;;;;;;9.00;2.38;;;;;;;14.13;69.64;98575.69;5714944;25;20052;-62
2024/04/05 04:05:18;;;;;;;3.25;2.15;;;;;;;14.15;69.11;98580.81;5698267;25;20497;-62
2024/04/05 04:07:45;;;;;;;5.95;2.33;;;;;;;14.19;69.27;98584.38;5697099;25;20025;-62
2024/04/05 04:10:13;;;;;;;10.23;1.98;;;;;;;14.18;68.74;98600.06;5696255;25;20044;-62
2024/04/05 04:12:40;;;;;;;5.88;1.92;;;;;;;14.19;69.02;98584.38;5734061;25;20122;-62
2024/04/05 04:15:11;;;;;;;7.15;2.03;;;;;;;14.15;69.33;98581.59;5733350;25;20127;-62
2024/04/05 04:17:37;;;;;;;4.28;1.80;;;;;;;14.12;68.80;98585.06;5697541;25;20570;-62
2024/04/05 04:20:06;;;;;;;6.15;2.00;;;;;;;14.07;68.98;98596.34;5733420;25;20531;-62
2024/04/05 04:22:33;;;;;;;3.90;1.70;;;;;;;14.00;69.02;98592.72;5698047;25;20466;-62
2024/04/05 04:25:03;;;;;;;6.03;2.03;;;;;;;13.99;68.92;98593.88;5698080;25;20047;-62
2024/04/05 04:27:30;;;;;;;7.40;2.60;;;;;;;13.97;69.11;98598.94;5733134;25;20462;-62
2024/04/05 04:29:58;;;;;;;8.27;2.63;;;;;;;13.92;68.83;98598.09;5733216;25;20500;-62
2024/04/05 04:32:25;;;;;;;10.23;2.90;;;;;;;13.91;69.14;98609.41;5733280;24;20468;-62
2024/04/05 04:34:51;;;;;;;8.63;3.20;;;;;;;13.87;68.84;98601.16;5733673;25;20472;-62
2024/04/05 04:37:20;;;;;;;18.00;10.60;;;;;;;13.66;68.79;98606.28;5697262;25;20617;-62
2024/04/05 04:39:46;;;;;;;12.68;6.47;;;;;;;13.57;69.88;98597.50;5733435;25;20149;-62
2024/04/05 04:42:13;;;;;;;7.20;3.30;;;;;;;13.54;70.17;98596.31;5733289;25;20116;-61
2024/04/05 04:44:40;;;;;;;8.32;2.40;;;;;;;13.56;69.50;98593.19;5732777;25;20029;-62
2024/04/05 04:47:06;;;;;;;6.30;2.70;;;;;;;13.58;69.67;98588.97;5697377;25;20133;-61
2024/04/05 04:49:35;;;;;;;7.88;2.78;;;;;;;13.60;69.14;98583.09;5733556;25;20038;-61
2024/04/05 04:52:02;;;;;;;9.30;3.17;;;;;;;13.62;69.14;98589.00;5665369;25;20048;-61
2024/04/05 04:54:28;;;;;;;13.63;4.57;;;;;;;13.63;69.62;98587.84;5732015;24;20037;-61
2024/04/05 04:56:55;;;;;;;7.35;3.50;;;;;;;13.57;69.48;98592.03;5733152;24;20041;-62
2024/04/05 04:59:28;;;;;;;8.88;3.60;;;;;;;13.50;68.97;98584.50;5732703;24;20052;-62
2024/04/05 05:01:57;;;;;;;9.25;3.28;;;;;;;13.40;69.48;98578.84;5713280;25;20783;-62
2024/04/05 05:04:23;;;;;;;7.13;2.72;;;;;;;13.33;69.71;98584.97;5697049;25;20508;-62
2024/04/05 05:06:50;;;;;;;6.53;3.03;;;;;;;13.40;69.56;98590.59;5733496;25;20073;-62
2024/04/05 05:09:17;;;;;;;6.82;2.80;;;;;;;13.48;69.67;98596.97;5696992;25;20075;-62
2024/04/05 05:11:45;;;;;;;11.27;4.07;;;;;;;13.47;69.09;98590.72;5732837;25;20034;-61
2024/04/05 05:14:11;;;;;;;6.55;2.35;;;;;;;13.31;69.44;98574.41;5732878;25;20033;-61
2024/04/05 05:16:38;;;;;;;13.05;7.35;;;;;;;13.17;69.84;98565.88;5732246;25;20041;-61
2024/04/05 05:19:06;;;;;;;7.32;3.28;;;;;;;13.14;69.71;98571.31;5697303;25;20041;-62
2024/04/05 05:21:34;;;;;;;4.72;2.60;;;;;;;13.12;70.06;98579.88;5665747;25;20052;-62
2024/04/05 05:24:02;;;;;;;9.23;3.38;;;;;;;13.10;69.95;98573.19;5736568;25;20167;-62
2024/04/05 05:26:28;;;;;;;8.38;2.55;;;;;;;13.08;69.91;98578.25;5700790;25;20085;-62
2024/04/05 05:28:55;;;;;;;7.30;3.00;;;;;;;13.07;70.13;98580.19;5736344;25;20479;-61
2024/04/05 05:31:21;;;;;;;7.65;2.72;;;;;;;13.10;70.25;98589.63;5702287;25;20039;-62
2024/04/05 05:33:48;;;;;;;9.57;3.15;;;;;;;13.19;69.97;98601.94;5694149;25;20166;-61
2024/04/05 05:36:15;;;;;;;10.50;3.35;;;;;;;13.26;69.66;98610.31;5694699;25;20401;-62
2024/04/05 05:38:41;;;;;;;5.75;2.80;;;;;;;13.29;69.73;98608.78;5661328;25;20163;-62
2024/04/05 05:41:08;;;;;;;7.35;2.83;;;;;;;13.32;69.68;98602.56;5661720;25;20034;-62
2024/04/05 05:43:34;;;;;;;10.07;2.80;;;;;;;13.32;69.15;98597.88;5695829;25;20037;-62
2024/04/05 05:46:01;;;;;;;9.55;3.33;;;;;;;13.32;69.71;98606.09;5693602;25;20029;-62
2024/04/05 05:48:27;;;;;;;7.15;2.72;;;;;;;13.28;69.62;98605.25;5694936;25;20041;-63
2024/04/05 05:50:54;;;;;;;7.20;3.70;;;;;;;13.30;69.72;98602.16;5693861;25;20112;-62
2024/04/05 05:53:21;;;;;;;8.05;2.85;;;;;;;13.26;69.35;98602.09;5693743;25;20030;-62
2024/04/05 05:55:50;;;;;;;8.80;2.80;;;;;;;13.23;69.44;98600.09;5661583;25;20174;-62
2024/04/05 05:58:17;;;;;;;9.57;4.95;;;;;;;13.25;69.67;98589.56;5695563;25;20492;-62
2024/04/05 06:00:44;;;;;;;4.55;2.67;;;;;;;13.28;69.85;98583.34;5667661;25;20032;-63
2024/04/05 06:03:11;;;;;;;11.82;5.45;;;;;;;13.49;69.80;98593.09;5736423;25;20037;-62
2024/04/05 06:05:38;;;;;;;5.63;2.40;;;;;;;13.70;69.58;98587.94;5736219;25;20048;-62
2024/04/05 06:08:06;;;;;;;7.53;2.67;;;;;;;13.98;69.60;98590.34;5699466;25;20522;-62
2024/04/05 06:10:32;;;;;;;6.03;2.53;;;;;;;14.22;69.00;98595.41;5700085;25;20485;-62
2024/04/05 06:13:01;;;;;;;6.70;2.28;;;;;;;14.47;68.19;98592.22;5735229;25;20604;-62
2024/04/05 06:15:27;;;;;;;5.80;3.25;;;;;;;14.71;67.79;98588.25;5735260;25;20373;-61
2024/04/05 06:17:54;;;;;;;6.90;1.90;;;;;;;14.77;67.10;98587.53;5698631;25;20043;-63
2024/04/05 06:20:21;;;;;;;5.43;2.08;;;;;;;14.75;66.92;98575.34;5700067;25;20032;-61
2024/04/05 06:22:47;;;;;;;6.32;2.03;;;;;;;14.84;67.05;98576.63;5699891;25;20066;-61
2024/04/05 06:25:14;;;;;;;8.13;2.25;;;;;;;14.87;67.05;98577.81;5667291;25;20504;-62
2024/04/05 06:27:41;;;;;;;7.18;2.20;;;;;;;14.92;67.01;98563.78;5734403;25;20026;-62
2024/04/05 06:30:08;;;;;;;6.88;1.95;;;;;;;14.98;67.09;98558.72;5699743;25;20112;-61
2024/04/05 06:32:35;;;;;;;5.40;2.13;;;;;;;15.06;66.86;98568.59;5716110;25;20033;-61
2024/04/05 06:35:02;;;;;;;2.85;1.90;;;;;;;15.21;66.45;98550.31;5698880;25;20036;-62
2024/04/05 06:37:30;;;;;;;5.68;2.20;;;;;;;15.30;65.63;98548.06;5735136;25;20040;-62
2024/04/05 06:39:57;;;;;;;4.70;2.05;;;;;;;15.29;65.59;98544.53;5699328;25;20057;-63
2024/04/05 06:42:23;;;;;;;4.97;2.38;;;;;;;15.34;65.43;98551.63;5734547;25;20033;-62
2024/04/05 06:44:53;;;;;;;8.10;2.45;;;;;;;15.45;65.56;98536.03;5734662;25;20047;-62
2024/04/05 06:47:19;;;;;;;9.40;2.75;;;;;;;15.54;65.91;98539.22;5699130;25;20033;-61
2024/04/05 06:49:46;;;;;;;6.65;4.10;;;;;;;15.66;65.63;98521.69;5700237;25;20460;-61
2024/04/05 06:52:13;;;;;;;9.48;5.57;;;;;;;15.74;65.18;98509.56;5667059;25;20029;-61
2024/04/05 06:54:46;;;;;;;8.13;3.13;;;;;;;15.78;65.41;98524.13;5699450;25;20037;-62
2024/04/05 06:57:12;;;;;;;6.55;2.97;;;;;;;15.94;65.46;98529.31;5698555;25;20041;-62
2024/04/05 06:59:39;;;;;;;6.55;4.03;;;;;;;16.12;65.81;98530.22;5699843;25;20492;-62
2024/04/05 07:02:06;;;;;;;19.35;12.20;;;;;;;16.22;64.42;98520.47;5712778;24;20051;-62
2024/04/05 07:04:36;;;;;;;9.23;5.60;;;;;;;16.19;64.84;98538.53;5699323;25;20206;-62
2024/04/05 07:07:03;;;;;;;9.93;4.55;;;;;;;16.27;64.60;98545.63;5699615;25;20534;-62
2024/04/05 07:09:29;;;;;;;11.27;4.88;;;;;;;16.38;64.69;98553.16;5734577;25;20047;-63
2024/04/05 07:11:58;;;;;;;11.38;4.40;;;;;;;16.33;64.05;98546.84;5734537;25;20467;-63
2024/04/05 07:14:24;;;;;;;5.60;2.53;;;;;;;16.27;63.87;98547.59;5699716;25;20048;-63
2024/04/05 07:16:52;;;;;;;7.97;3.10;;;;;;;16.33;63.99;98529.53;5734795;25;20056;-63
2024/04/05 07:19:19;;;;;;;9.82;4.43;;;;;;;16.43;63.99;98531.56;5699003;25;20181;-63
2024/04/05 07:21:46;;;;;;;17.40;9.25;;;;;;;16.57;64.19;98528.88;5734964;25;20053;-63
2024/04/05 07:24:14;;;;;;;10.95;5.47;;;;;;;16.71;63.86;98530.91;5733915;25;20112;-62
2024/04/05 07:26:40;;;;;;;6.63;2.70;;;;;;;16.84;62.95;98531.34;5734864;25;20475;-63
2024/04/05 07:29:08;;;;;;;7.93;3.75;;;;;;;16.91;63.39;98520.31;5698984;25;20044;-63
2024/04/05 07:31:36;;;;;;;5.95;2.67;;;;;;;17.05;62.79;98520.34;5704570;25;20057;-63
2024/04/05 07:34:04;;;;;;;9.75;3.80;;;;;;;17.19;61.71;98517.63;5703147;25;20029;-63
2024/04/05 07:36:32;;;;;;;8.20;4.50;;;;;;;17.34;61.70;98512.91;5734376;25;20138;-62
2024/04/05 07:39:03;;;;;;;10.15;5.05;;;;;;;17.43;60.65;98505.03;5732576;25;20502;-63
2024/04/05 07:41:29;;;;;;;23.42;14.90;;;;;;;17.41;61.36;98515.66;5698794;25;20060;-62
2024/04/05 07:43:55;;;;;;;6.95;3.75;;;;;;;17.40;60.44;98518.81;5734261;25;20190;-62
2024/04/05 07:46:23;;;;;;;6.28;3.50;;;;;;;17.38;60.77;98513.69;5734341;25;20048;-62
2024/04/05 07:48:49;;;;;;;4.10;1.88;;;;;;;17.36;59.84;98513.31;5733284;25;20029;-68
2024/04/05 07:51:20;;;;;;;3.97;1.67;;;;;;;17.49;59.30;98513.72;5698850;25;20145;-63
2024/04/05 07:53:47;;;;;;;7.18;2.13;;;;;;;17.67;58.27;98521.97;5733927;25;20140;-62
2024/04/05 07:56:14;;;;;;;5.90;2.25;;;;;;;17.82;57.73;98521.56;5698391;25;20061;-63
2024/04/05 07:58:40;;;;;;;13.35;8.50;;;;;;;18.02;57.38;98515.63;5732463;25;20033;-62
2024/04/05 08:01:07;;;;;;;8.65;5.38;;;;;;;18.24;57.01;98508.09;5733713;25;20510;-63
2024/04/05 08:03:34;;;;;;;3.38;1.67;;;;;;;18.41;56.66;98507.25;5734499;24;20036;-62
2024/04/05 08:06:01;;;;;;;3.42;1.60;;;;;;;18.54;56.59;98502.03;5734026;25;20139;-62
2024/04/05 08:08:27;;;;;;;5.43;1.67;;;;;;;18.63;55.25;98505.19;5697325;25;20037;-63
2024/04/05 08:11:00;;;;;;;4.90;1.65;;;;;;;18.68;54.43;98500.03;5734288;25;20068;-63
2024/04/05 08:13:28;;;;;;;3.63;1.40;;;;;;;18.71;54.28;98490.94;5698062;25;20138;-63
2024/04/05 08:15:55;;;;;;;2.95;1.50;;;;;;;18.89;54.65;98495.56;5698605;25;20464;-63
2024/04/05 08:18:22;;;;;;;3.63;1.90;;;;;;;19.04;54.33;98503.38;5732616;25;20036;-62
2024/04/05 08:20:48;;;;;;;4.47;1.75;;;;;;;19.16;54.08;98495.78;5698087;25;20052;-62
2024/04/05 08:23:14;;;;;;;5.18;2.28;;;;;;;19.27;53.13;98488.97;5732937;25;20064;-62
2024/04/05 08:25:41;;;;;;;4.50;1.52;;;;;;;19.38;52.61;98485.34;5699004;25;20037;-62
2024/04/05 08:28:08;;;;;;;2.97;1.23;;;;;;;19.42;51.96;98481.34;5733240;25;20021;-63
2024/04/05 08:30:34;;;;;;;4.93;1.38;;;;;;;19.51;51.51;98484.41;5697602;25;20122;-62
2024/04/05 08:33:00;;;;;;;3.92;1.35;;;;;;;19.62;50.70;98487.91;5733426;25;20040;-63
2024/04/05 08:35:27;;;;;;;7.38;1.48;;;;;;;19.71;50.72;98490.22;5697534;25;20041;-62
2024/04/05 08:38:01;;;;;;;3.83;1.45;;;;;;;19.84;49.64;98487.72;5732722;25;20037;-63
2024/04/05 08:40:28;;;;;;;3.67;1.58;;;;;;;19.94;48.36;98498.69;5733101;25;20065;-63
2024/04/05 08:43:00;;;;;;;3.88;1.42;;;;;;;19.99;49.23;98496.66;5733296;25;20041;-62
2024/04/05 08:45:33;;;;;;;4.53;1.85;;;;;;;20.15;48.63;98481.03;5698237;25;20083;-62
2024/04/05 08:48:04;;;;;;;1.92;1.00;;;;;;;20.30;47.70;98478.13;5732573;25;20532;-63
2024/04/05 08:50:33;;;;;;;3.38;1.23;;;;;;;20.41;47.39;98470.47;5732569;25;20169;-63
2024/04/05 08:53:00;;;;;;;3.30;1.20;;;;;;;20.58;46.85;98463.91;5698177;25;20497;-63
2024/04/05 08:55:27;;;;;;;3.13;1.30;;;;;;;20.77;47.22;98474.34;5732844;25;20411;-63
2024/04/05 08:57:55;;;;;;;2.40;0.98;;;;;;;20.82;46.04;98482.19;5700481;25;20536;-63
2024/04/05 09:00:24;;;;;;;4.30;1.35;;;;;;;20.73;45.57;98481.13;5700573;25;20119;-62
2024/04/05 09:02:53;;;;;;;3.15;1.33;;;;;;;20.60;44.72;98477.34;5737093;25;20517;-63
2024/04/05 09:05:20;;;;;;;2.67;1.17;;;;;;;20.50;45.52;98477.09;5701298;25;20051;-62
2024/04/05 09:07:47;;;;;;;3.15;1.27;;;;;;;20.56;45.93;98471.88;5700584;25;20060;-63
2024/04/05 09:10:18;;;;;;;4.13;1.73;;;;;;;20.61;45.56;98473.38;5735974;25;20039;-63
2024/04/05 09:12:52;;;;;;;3.75;1.70;;;;;;;20.60;45.01;98469.81;5701477;25;20029;-62
2024/04/05 09:15:20;;;;;;;2.35;1.10;;;;;;;20.62;45.10;98478.50;5736310;25;20415;-64
2024/04/05 09:17:48;;;;;;;3.58;1.52;;;;;;;20.62;45.70;98474.94;5700914;25;20052;-63
2024/04/05 09:20:31;;;;;;;2.55;1.50;;;;;;;20.79;45.08;98468.38;5736758;25;20041;-64
2024/04/05 09:23:00;;;;;;;2.30;1.50;;;;;;;20.96;44.61;98450.69;5737313;25;20045;-65
2024/04/05 09:25:27;;;;;;;3.53;2.45;;;;;;;21.01;44.29;98463.28;5701106;25;20033;-65
2024/04/05 09:28:16;;;;;;;2.35;1.25;;;;;;;21.09;44.45;98468.31;5700752;25;20142;-66
2024/04/05 09:30:43;;;;;;;3.80;1.50;;;;;;;21.20;43.85;98465.41;5735941;25;20069;-67
2024/04/05 09:33:19;;;;;;;1.23;1.00;;;;;;;21.32;43.78;98461.25;5717972;25;20045;-66
2024/04/05 09:35:47;;;;;;;8.90;1.67;;;;;;;21.36;43.77;98462.75;5701018;25;20396;-66
2024/04/05 09:38:17;;;;;;;3.72;1.42;;;;;;;21.35;43.30;98454.84;5737746;25;20419;-64
2024/04/05 09:40:43;;;;;;;1.95;1.15;;;;;;;21.43;44.16;98453.56;5736422;25;20448;-65
2024/04/05 09:43:12;;;;;;;2.97;1.40;;;;;;;21.58;44.02;98446.53;5736294;25;20049;-64
2024/04/05 09:45:42;;;;;;;2.75;1.27;;;;;;;21.69;43.34;98452.66;5735954;25;20435;-65
2024/04/05 09:48:10;;;;;;;2.72;1.23;;;;;;;21.63;42.93;98446.06;5700092;25;20045;-64
2024/04/05 09:50:39;;;;;;;2.25;1.38;;;;;;;21.69;43.77;98441.56;5700406;25;20548;-64
2024/04/05 09:53:08;;;;;;;2.40;1.20;;;;;;;21.79;43.52;98433.47;5735751;25;20043;-63
2024/04/05 09:55:42;;;;;;;3.55;2.30;;;;;;;21.80;43.22;98435.06;5737098;25;20021;-63
2024/04/05 09:58:10;;;;;;;3.10;1.30;;;;;;;21.81;43.08;98436.63;5735285;25;20037;-63
2024/04/05 10:00:38;;;;;;;3.63;1.63;;;;;;;21.82;42.17;98427.84;5735185;25;20041;-64
2024/04/05 10:03:05;;;;;;;4.68;1.30;;;;;;;21.91;42.40;98441.94;5735168;25;20051;-63
2024/04/05 10:05:33;;;;;;;2.25;1.05;;;;;;;22.01;41.61;98446.53;5735429;25;20048;-64
2024/04/05 10:08:10;;;;;;;2.67;1.70;;;;;;;22.13;42.05;98447.91;5733851;25;20092;-64
2024/04/05 10:10:36;;;;;;;2.50;1.42;;;;;;;22.33;42.04;98443.13;5700683;25;20041;-64
2024/04/05 10:13:17;;;;;;;3.50;1.27;;;;;;;22.39;40.46;98454.53;5700456;25;20106;-63
2024/04/05 10:15:54;;;;;;;2.53;1.23;;;;;;;22.32;40.98;98452.69;5735867;25;20049;-64
2024/04/05 10:18:34;;;;;;;1.77;1.30;;;;;;;22.39;40.35;98448.19;5700637;25;20045;-63
2024/04/05 10:21:03;;;;;;;2.75;1.30;;;;;;;22.42;40.10;98453.66;5736542;25;20033;-63
2024/04/05 10:23:30;;;;;;;3.08;1.30;;;;;;;22.59;39.76;98458.06;5736962;25;20059;-63
2024/04/05 10:25:58;;;;;;;4.03;1.20;;;;;;;22.69;39.28;98464.59;5740678;25;20146;-63
2024/04/05 10:28:26;;;;;;;2.40;1.40;;;;;;;22.71;39.03;98459.38;5705457;25;20356;-64
2024/04/05 10:30:53;;;;;;;3.08;1.10;;;;;;;22.83;38.79;98466.28;5703701;25;20095;-64
2024/04/05 10:33:21;;;;;;;3.88;1.50;;;;;;;22.84;38.86;98465.84;5722092;25;20076;-64
2024/04/05 10:35:49;;;;;;;1.88;0.90;;;;;;;23.01;38.56;98454.75;5708763;25;20048;-65
2024/04/05 10:38:16;;;;;;;1.42;1.08;;;;;;;23.20;38.91;98462.25;5743190;25;20381;-65
2024/04/05 10:40:59;;;;;;;4.03;1.15;;;;;;;23.39;38.46;98452.25;5745872;25;20082;-66
2024/04/05 10:43:26;;;;;;;1.90;1.10;;;;;;;23.59;37.91;98460.50;5742191;25;20037;-65
2024/04/05 10:45:54;;;;;;;2.78;0.98;;;;;;;23.72;37.65;98469.72;5743637;25;20088;-66
2024/04/05 10:48:22;;;;;;;5.35;1.02;;;;;;;23.80;36.63;98476.66;5740645;25;20033;-65
2024/04/05 10:50:49;;;;;;;2.95;0.82;;;;;;;23.79;36.88;98478.66;5741268;25;20037;-64
2024/04/05 10:53:21;;;;;;;4.40;1.10;;;;;;;23.93;36.95;98471.94;5738524;25;20496;-64
2024/04/05 10:55:51;;;;;;;1.52;0.88;;;;;;;24.02;36.16;98457.38;5701913;25;20476;-65
2024/04/05 10:58:18;;;;;;;7.25;1.00;;;;;;;23.98;35.63;98463.03;5699488;25;20049;-65
2024/04/05 11:00:45;;;;;;;1.98;0.95;;;;;;;24.00;36.09;98459.84;5735378;25;20122;-65
2024/04/05 11:03:16;;;;;;;1.90;1.00;;;;;;;24.04;35.76;98461.28;5737528;25;20052;-66
2024/04/05 11:05:44;;;;;;;3.13;1.08;;;;;;;23.90;35.19;98444.97;5701680;25;20052;-65
2024/04/05 11:08:16;;;;;;;3.47;1.20;;;;;;;23.75;35.42;98446.56;5737396;25;20033;-67
2024/04/05 11:10:43;;;;;;;1.90;1.10;;;;;;;23.74;35.27;98443.00;5739154;25;20114;-66
2024/04/05 11:13:17;;;;;;;4.10;1.00;;;;;;;23.72;35.36;98439.09;5702392;25;20449;-66
2024/04/05 11:15:44;;;;;;;;;;;;;;;23.67;35.43;98434.84;5737133;25;20052;-65
2024/04/05 11:18:13;;;;;;;2.20;1.08;;;;;;;23.61;35.80;98427.44;5735117;25;19953;-65
2024/04/05 11:20:41;;;;;;;1.77;0.88;;;;;;;23.69;36.24;98423.25;5700699;25;20450;-65
2024/04/05 11:23:21;;;;;;;4.05;1.25;;;;;;;23.76;35.74;98409.13;5735988;25;20064;-65
2024/04/05 11:25:52;;;;;;;1.35;0.90;;;;;;;23.67;35.93;98412.56;5735806;25;20041;-65
2024/04/05 11:28:22;;;;;;;2.25;0.85;;;;;;;23.59;35.92;98407.63;5699253;25;20527;-64
2024/04/05 11:30:50;;;;;;;1.70;1.00;;;;;;;23.58;36.40;98403.28;5699372;25;20154;-64
2024/04/05 11:33:17;;;;;;;6.00;1.00;;;;;;;23.60;36.04;98398.81;5718848;25;20484;-64
2024/04/05 11:35:44;;;;;;;5.85;1.30;;;;;;;23.63;36.51;98389.63;5734932;25;20044;-64
2024/04/05 11:38:13;;;;;;;2.35;1.13;;;;;;;23.67;35.80;98403.44;5699308;25;20118;-64